createdAt,value
2022-09-04T00:00:03.609Z,46.15
2022-09-04T00:00:38.414Z,46.56
2022-09-04T00:01:09.638Z,46.76
2022-09-04T00:01:45.098Z,46.00
2022-09-04T00:02:25.435Z,44.70
2022-09-04T00:03:07.689Z,46.44
2022-09-04T00:03:39.589Z,45.82
2022-09-04T00:04:15.476Z,46.15
2022-09-04T00:04:46.867Z,47.70
2022-09-04T00:05:17.236Z,46.42
2022-09-04T00:05:49.336Z,46.40
2022-09-04T00:06:19.381Z,44.87
2022-09-04T00:06:49.671Z,45.66
2022-09-04T00:07:19.052Z,45.74
2022-09-04T00:07:57.706Z,47.01
2022-09-04T00:08:52.576Z,46.28
2022-09-04T00:09:23.831Z,45.71
2022-09-04T00:09:53.853Z,45.18
2022-09-04T00:10:22.346Z,45.20
2022-09-04T00:10:53.724Z,44.72
2022-09-04T00:11:29.478Z,43.85
2022-09-04T00:11:59.517Z,44.79
2022-09-04T00:12:26.950Z,44.91
2022-09-04T00:12:54.755Z,45.01
2022-09-04T00:13:22.031Z,45.77
2022-09-04T00:13:51.637Z,45.30
2022-09-04T00:14:17.722Z,45.52
2022-09-04T00:14:45.860Z,46.51
2022-09-04T00:15:15.470Z,47.50
2022-09-04T00:15:43.739Z,47.19
2022-09-04T00:16:10.222Z,47.39
2022-09-04T00:16:43.105Z,46.95
2022-09-04T00:17:11.063Z,46.25
2022-09-04T00:17:40.308Z,46.89
2022-09-04T00:18:08.321Z,47.25
2022-09-04T00:18:37.369Z,46.26
2022-09-04T00:19:08.450Z,47.02
2022-09-04T00:19:36.652Z,46.20
2022-09-04T00:20:02.683Z,46.89
2022-09-04T00:20:34.121Z,47.78
2022-09-04T00:21:01.586Z,47.01
2022-09-04T00:21:34.445Z,47.03
2022-09-04T00:21:58.729Z,48.08
2022-09-04T00:22:33.593Z,46.72
2022-09-04T00:23:01.980Z,46.24
2022-09-04T00:23:31.621Z,46.88
2022-09-04T00:23:58.038Z,47.06
2022-09-04T00:24:24.714Z,46.26
2022-09-04T00:24:53.879Z,46.75
2022-09-04T00:25:25.385Z,47.47
2022-09-04T00:25:57.758Z,46.00
2022-09-04T00:26:30.708Z,46.22
2022-09-04T00:26:59.381Z,46.48
2022-09-04T00:27:24.884Z,46.67
2022-09-04T00:27:52.184Z,46.24
2022-09-04T00:28:26.751Z,47.00
2022-09-04T00:28:50.982Z,47.13
2022-09-04T00:29:20.212Z,46.98
2022-09-04T00:29:49.008Z,46.49
2022-09-04T00:30:15.280Z,47.43
2022-09-04T00:30:46.260Z,46.93
2022-09-04T00:31:25.819Z,47.23
2022-09-04T00:31:53.149Z,46.14
2022-09-04T00:32:24.808Z,46.18
2022-09-04T00:32:55.345Z,45.69
2022-09-04T00:33:23.686Z,46.09
2022-09-04T00:33:54.216Z,45.35
2022-09-04T00:34:25.762Z,44.61
2022-09-04T00:35:05.912Z,45.66
2022-09-04T00:35:31.284Z,47.12
2022-09-04T00:35:58.658Z,46.91
2022-09-04T00:36:25.338Z,45.31
2022-09-04T00:36:51.559Z,47.43
2022-09-04T00:37:17.316Z,45.79
2022-09-04T00:37:44.251Z,45.67
2022-09-04T00:38:11.801Z,45.18
2022-09-04T00:39:26.584Z,46.68
2022-09-04T00:39:54.653Z,45.60
2022-09-04T00:40:25.263Z,44.90
2022-09-04T00:40:57.722Z,45.67
2022-09-04T00:41:29.379Z,46.31
2022-09-04T00:42:05.768Z,45.97
2022-09-04T00:42:43.396Z,46.01
2022-09-04T00:43:27.948Z,45.74
2022-09-04T00:44:07.796Z,46.92
2022-09-04T00:44:45.783Z,46.53
2022-09-04T00:45:16.944Z,45.25
2022-09-04T00:45:58.388Z,44.42
2022-09-04T00:46:59.118Z,45.46
2022-09-04T00:47:49.353Z,45.03
2022-09-04T00:48:28.359Z,46.92
2022-09-04T00:49:20.244Z,45.97
2022-09-04T00:50:19.848Z,46.70
2022-09-04T00:51:06.825Z,46.08
2022-09-04T00:51:38.356Z,46.55
2022-09-04T00:52:12.804Z,46.20
2022-09-04T00:52:58.463Z,45.52
2022-09-04T00:53:41.755Z,45.75
2022-09-04T00:54:32.845Z,45.62
2022-09-04T00:55:08.954Z,45.17
2022-09-04T00:55:50.689Z,45.08
2022-09-04T00:56:31.453Z,45.79
2022-09-04T00:57:21.088Z,45.90
2022-09-04T00:58:07.959Z,46.20
2022-09-04T00:58:47.099Z,46.46
2022-09-04T00:59:20.490Z,47.80
2022-09-04T01:00:04.797Z,47.59
2022-09-04T01:00:27.930Z,47.35
2022-09-04T01:00:50.442Z,45.81
2022-09-04T01:01:19.204Z,45.89
2022-09-04T01:01:42.336Z,47.25
2022-09-04T01:02:12.458Z,46.69
2022-09-04T01:02:54.314Z,46.96
2022-09-04T01:03:31.682Z,45.54
2022-09-04T01:04:17.489Z,44.85
2022-09-04T01:04:43.223Z,45.41
2022-09-04T01:05:25.670Z,46.05
2022-09-04T01:06:03.980Z,45.50
2022-09-04T01:06:35.551Z,46.55
2022-09-04T01:07:21.193Z,46.50
2022-09-04T01:07:56.818Z,47.02
2022-09-04T01:08:32.744Z,48.19
2022-09-04T01:09:11.008Z,46.22
2022-09-04T01:09:48.557Z,47.16
2022-09-04T01:10:24.257Z,47.84
2022-09-04T01:11:00.130Z,46.36
2022-09-04T01:11:33.902Z,48.89
2022-09-04T01:12:06.455Z,47.55
2022-09-04T01:12:37.729Z,47.52
2022-09-04T01:13:07.898Z,46.51
2022-09-04T01:13:38.558Z,45.64
2022-09-04T01:14:10.781Z,47.48
2022-09-04T01:14:41.920Z,46.81
2022-09-04T01:15:14.465Z,47.01
2022-09-04T01:15:44.982Z,46.40
2022-09-04T01:16:11.181Z,45.82
2022-09-04T01:16:37.623Z,46.92
2022-09-04T01:17:10.145Z,47.41
2022-09-04T01:17:37.153Z,47.09
2022-09-04T01:18:08.102Z,46.31
2022-09-04T01:18:38.152Z,48.14
2022-09-04T01:19:10.989Z,48.07
2022-09-04T01:19:49.738Z,47.97
2022-09-04T01:20:20.333Z,47.23
2022-09-04T01:21:06.363Z,46.64
2022-09-04T01:22:01.364Z,46.37
2022-09-04T01:22:40.470Z,48.04
2022-09-04T01:23:16.644Z,47.95
2022-09-04T01:23:56.304Z,48.38
2022-09-04T01:24:40.040Z,48.06
2022-09-04T01:25:08.541Z,48.71
2022-09-04T01:25:52.116Z,48.23
2022-09-04T01:26:23.319Z,48.77
2022-09-04T01:26:50.050Z,49.39
2022-09-04T01:27:22.648Z,46.95
2022-09-04T01:27:54.570Z,46.86
2022-09-04T01:28:27.084Z,46.51
2022-09-04T01:29:01.674Z,47.23
2022-09-04T01:29:33.019Z,47.35
2022-09-04T01:30:06.798Z,47.23
2022-09-04T01:30:35.117Z,47.47
2022-09-04T01:31:04.423Z,46.99
2022-09-04T01:31:36.541Z,47.24
2022-09-04T01:32:09.064Z,45.94
2022-09-04T01:32:43.791Z,47.58
2022-09-04T01:33:12.986Z,47.27
2022-09-04T01:33:46.111Z,46.57
2022-09-04T01:34:22.805Z,45.78
2022-09-04T01:34:53.861Z,46.79
2022-09-04T01:35:25.657Z,47.47
2022-09-04T01:35:55.810Z,48.23
2022-09-04T01:36:28.823Z,47.98
2022-09-04T01:36:59.778Z,46.48
2022-09-04T01:37:34.609Z,46.66
2022-09-04T01:38:03.092Z,45.71
2022-09-04T01:38:33.695Z,47.98
2022-09-04T01:38:58.653Z,48.55
2022-09-04T01:39:24.907Z,49.50
2022-09-04T01:39:57.230Z,49.73
2022-09-04T01:40:35.174Z,47.90
2022-09-04T01:41:07.256Z,48.98
2022-09-04T01:41:38.203Z,46.57
2022-09-04T01:42:05.322Z,47.13
2022-09-04T01:42:37.620Z,47.21
2022-09-04T01:43:05.774Z,47.48
2022-09-04T01:43:27.730Z,48.43
2022-09-04T01:43:50.829Z,47.71
2022-09-04T01:44:14.383Z,47.43
2022-09-04T01:44:36.908Z,47.99
2022-09-04T01:44:58.534Z,49.10
2022-09-04T01:45:33.388Z,48.78
2022-09-04T01:46:38.157Z,45.49
2022-09-04T01:47:11.154Z,46.31
2022-09-04T01:47:43.313Z,48.47
2022-09-04T01:48:10.371Z,47.66
2022-09-04T01:48:45.063Z,48.68
2022-09-04T01:49:16.381Z,49.02
2022-09-04T01:49:42.682Z,47.91
2022-09-04T01:50:11.048Z,48.74
2022-09-04T01:50:32.990Z,49.12
2022-09-04T01:51:01.872Z,49.08
2022-09-04T01:51:30.475Z,47.92
2022-09-04T01:52:03.139Z,47.70
2022-09-04T01:52:38.765Z,47.37
2022-09-04T01:53:07.794Z,47.54
2022-09-04T01:53:36.874Z,48.72
2022-09-04T01:54:12.684Z,47.83
2022-09-04T01:54:47.304Z,48.19
2022-09-04T01:55:20.111Z,48.21
2022-09-04T01:55:49.548Z,49.07
2022-09-04T01:56:20.841Z,48.66
2022-09-04T01:56:48.337Z,49.29
2022-09-04T01:57:19.760Z,49.12
2022-09-04T01:57:56.173Z,47.05
2022-09-04T01:58:29.541Z,48.54
2022-09-04T01:59:00.046Z,48.45
2022-09-04T01:59:28.523Z,48.54
2022-09-04T02:00:02.211Z,48.47
2022-09-04T02:00:30.109Z,48.20
2022-09-04T02:01:01.331Z,48.89
2022-09-04T02:01:35.560Z,49.65
2022-09-04T02:02:04.535Z,49.06
2022-09-04T02:02:30.969Z,50.02
2022-09-04T02:03:00.542Z,49.72
2022-09-04T02:03:27.465Z,49.06
2022-09-04T02:03:57.531Z,48.57
2022-09-04T02:04:26.555Z,48.12
2022-09-04T02:04:56.331Z,47.73
2022-09-04T02:05:26.321Z,48.25
2022-09-04T02:06:01.615Z,48.77
2022-09-04T02:06:33.002Z,49.99
2022-09-04T02:07:10.049Z,48.65
2022-09-04T02:07:36.162Z,47.94
2022-09-04T02:08:12.079Z,49.19
2022-09-04T02:08:49.734Z,48.95
2022-09-04T02:09:26.345Z,49.20
2022-09-04T02:09:58.638Z,49.71
2022-09-04T02:10:30.155Z,47.46
2022-09-04T02:11:00.126Z,48.39
2022-09-04T02:11:27.819Z,49.06
2022-09-04T02:12:01.406Z,49.84
2022-09-04T02:12:38.453Z,49.21
2022-09-04T02:13:15.213Z,49.45
2022-09-04T02:13:51.440Z,50.18
2022-09-04T02:14:35.565Z,48.74
2022-09-04T02:15:06.540Z,49.85
2022-09-04T02:15:37.555Z,50.13
2022-09-04T02:16:14.388Z,48.76
2022-09-04T02:16:45.727Z,49.80
2022-09-04T02:17:10.952Z,48.72
2022-09-04T02:17:41.680Z,50.12
2022-09-04T02:18:13.586Z,48.40
2022-09-04T02:18:50.287Z,49.59
2022-09-04T02:19:24.065Z,49.23
2022-09-04T02:20:03.608Z,48.19
2022-09-04T02:20:28.681Z,48.07
2022-09-04T02:20:57.538Z,49.05
2022-09-04T02:21:26.439Z,48.01
2022-09-04T02:21:56.036Z,49.70
2022-09-04T02:22:27.604Z,49.97
2022-09-04T02:22:59.032Z,49.63
2022-09-04T02:23:30.004Z,49.86
2022-09-04T02:24:05.698Z,49.66
2022-09-04T02:24:34.346Z,48.03
2022-09-04T02:25:05.634Z,48.83
2022-09-04T02:25:31.319Z,49.31
2022-09-04T02:26:08.512Z,47.56
2022-09-04T02:26:37.527Z,47.75
2022-09-04T02:27:09.201Z,49.62
2022-09-04T02:27:40.900Z,48.76
2022-09-04T02:28:18.061Z,49.60
2022-09-04T02:28:53.189Z,48.35
2022-09-04T02:29:26.085Z,50.17
2022-09-04T02:29:58.222Z,50.90
2022-09-04T02:30:21.077Z,49.63
2022-09-04T02:30:54.348Z,48.68
2022-09-04T02:31:25.788Z,48.98
2022-09-04T02:31:54.578Z,49.24
2022-09-04T02:32:20.585Z,48.41
2022-09-04T02:32:50.391Z,49.28
2022-09-04T02:33:19.109Z,50.70
2022-09-04T02:33:49.098Z,48.50
2022-09-04T02:34:19.874Z,48.37
2022-09-04T02:34:50.900Z,48.69
2022-09-04T02:35:20.318Z,49.44
2022-09-04T02:35:47.165Z,47.87
2022-09-04T02:36:18.528Z,49.25
2022-09-04T02:36:46.588Z,48.09
2022-09-04T02:37:21.478Z,47.39
2022-09-04T02:37:58.980Z,48.31
2022-09-04T02:38:32.410Z,49.04
2022-09-04T02:39:04.817Z,48.50
2022-09-04T02:39:44.736Z,49.23
2022-09-04T02:40:15.748Z,49.40
2022-09-04T02:40:46.747Z,48.57
2022-09-04T02:41:20.204Z,50.84
2022-09-04T02:41:51.056Z,50.02
2022-09-04T02:42:23.899Z,49.27
2022-09-04T02:42:59.432Z,48.52
2022-09-04T02:43:35.660Z,49.07
2022-09-04T02:44:10.424Z,48.07
2022-09-04T02:44:45.473Z,47.62
2022-09-04T02:45:19.443Z,49.20
2022-09-04T02:45:46.038Z,48.41
2022-09-04T02:46:16.771Z,48.55
2022-09-04T02:46:50.362Z,46.82
2022-09-04T02:47:23.153Z,46.97
2022-09-04T02:47:50.450Z,48.72
2022-09-04T02:48:18.429Z,48.88
2022-09-04T02:48:57.533Z,47.71
2022-09-04T02:49:29.236Z,47.69
2022-09-04T02:50:01.877Z,49.02
2022-09-04T02:50:40.305Z,50.11
2022-09-04T02:51:18.532Z,49.44
2022-09-04T02:51:54.589Z,49.35
2022-09-04T02:52:33.480Z,46.84
2022-09-04T02:53:08.229Z,47.82
2022-09-04T02:53:40.776Z,48.53
2022-09-04T02:54:11.064Z,48.06
2022-09-04T02:54:49.634Z,48.68
2022-09-04T02:55:20.772Z,49.05
2022-09-04T02:55:58.250Z,48.61
2022-09-04T02:56:31.273Z,47.16
2022-09-04T02:57:09.227Z,48.53
2022-09-04T02:57:44.607Z,47.12
2022-09-04T02:58:15.397Z,48.05
2022-09-04T02:58:49.849Z,47.49
2022-09-04T02:59:26.659Z,49.70
2022-09-04T02:59:59.030Z,49.47
2022-09-04T03:00:23.840Z,49.49
2022-09-04T03:00:55.116Z,48.59
2022-09-04T03:01:22.365Z,49.43
2022-09-04T03:01:51.964Z,49.55
2022-09-04T03:02:22.698Z,49.64
2022-09-04T03:02:53.104Z,48.80
2022-09-04T03:03:20.852Z,47.79
2022-09-04T03:03:48.047Z,48.61
2022-09-04T03:04:15.785Z,48.78
2022-09-04T03:04:49.970Z,49.14
2022-09-04T03:05:20.032Z,49.29
2022-09-04T03:05:50.180Z,48.98
2022-09-04T03:06:17.217Z,49.32
2022-09-04T03:06:50.500Z,48.04
2022-09-04T03:07:17.807Z,48.16
2022-09-04T03:07:48.925Z,49.49
2022-09-04T03:08:18.329Z,49.71
2022-09-04T03:08:47.034Z,47.12
2022-09-04T03:09:15.121Z,48.63
2022-09-04T03:09:41.620Z,47.71
2022-09-04T03:10:12.451Z,50.54
2022-09-04T03:10:41.564Z,48.99
2022-09-04T03:11:12.484Z,47.66
2022-09-04T03:11:40.954Z,47.49
2022-09-04T03:12:29.608Z,49.04
2022-09-04T03:12:56.316Z,48.45
2022-09-04T03:13:26.422Z,47.83
2022-09-04T03:13:52.843Z,48.60
2022-09-04T03:14:24.505Z,50.07
2022-09-04T03:14:54.082Z,49.36
2022-09-04T03:15:23.777Z,50.57
2022-09-04T03:15:51.790Z,49.24
2022-09-04T03:16:21.997Z,47.83
2022-09-04T03:16:48.299Z,47.03
2022-09-04T03:17:17.126Z,48.89
2022-09-04T03:17:48.333Z,49.52
2022-09-04T03:18:17.305Z,49.56
2022-09-04T03:18:59.123Z,48.87
2022-09-04T03:19:30.425Z,48.83
2022-09-04T03:19:57.090Z,49.75
2022-09-04T03:20:23.069Z,48.80
2022-09-04T03:20:52.297Z,49.06
2022-09-04T03:21:20.988Z,49.41
2022-09-04T03:21:48.934Z,49.77
2022-09-04T03:22:19.346Z,50.15
2022-09-04T03:22:48.852Z,49.54
2022-09-04T03:23:19.573Z,50.49
2022-09-04T03:23:49.647Z,48.46
2022-09-04T03:24:17.417Z,48.35
2022-09-04T03:24:59.956Z,49.32
2022-09-04T03:25:57.613Z,48.71
2022-09-04T03:26:23.446Z,48.48
2022-09-04T03:26:50.688Z,48.57
2022-09-04T03:27:16.799Z,46.40
2022-09-04T03:27:39.603Z,46.79
2022-09-04T03:28:02.031Z,46.65
2022-09-04T03:28:35.600Z,47.56
2022-09-04T03:29:10.034Z,46.52
2022-09-04T03:29:43.740Z,48.52
2022-09-04T03:30:08.140Z,49.04
2022-09-04T03:30:35.158Z,48.84
2022-09-04T03:31:01.292Z,49.77
2022-09-04T03:31:32.072Z,49.67
2022-09-04T03:32:15.647Z,50.46
2022-09-04T03:32:48.711Z,49.42
2022-09-04T03:33:19.112Z,50.22
2022-09-04T03:33:48.012Z,51.04
2022-09-04T03:34:33.468Z,49.64
2022-09-04T03:35:05.210Z,48.43
2022-09-04T03:35:35.500Z,49.54
2022-09-04T03:36:03.045Z,50.21
2022-09-04T03:36:36.188Z,48.41
2022-09-04T03:37:16.240Z,48.89
2022-09-04T03:37:58.826Z,48.07
2022-09-04T03:38:29.622Z,48.08
2022-09-04T03:39:02.681Z,48.53
2022-09-04T03:39:30.739Z,47.65
2022-09-04T03:40:08.849Z,47.44
2022-09-04T03:40:37.509Z,49.45
2022-09-04T03:41:13.158Z,49.37
2022-09-04T03:41:45.187Z,50.23
2022-09-04T03:42:19.888Z,48.96
2022-09-04T03:42:56.131Z,48.06
2022-09-04T03:43:51.330Z,47.70
2022-09-04T03:44:24.956Z,46.86
2022-09-04T03:45:02.601Z,48.41
2022-09-04T03:45:33.119Z,49.54
2022-09-04T03:46:04.008Z,49.13
2022-09-04T03:46:37.836Z,49.54
2022-09-04T03:47:11.423Z,48.79
2022-09-04T03:47:41.628Z,48.64
2022-09-04T03:48:21.335Z,49.85
2022-09-04T03:49:05.536Z,49.59
2022-09-04T03:49:42.739Z,48.86
2022-09-04T03:50:17.246Z,47.75
2022-09-04T03:50:48.744Z,49.24
2022-09-04T03:51:19.149Z,48.34
2022-09-04T03:51:55.580Z,49.76
2022-09-04T03:52:26.656Z,48.50
2022-09-04T03:52:57.988Z,50.35
2022-09-04T03:53:30.103Z,49.33
2022-09-04T03:54:02.221Z,48.50
2022-09-04T03:54:42.367Z,51.32
2022-09-04T03:55:28.972Z,50.07
2022-09-04T03:56:11.082Z,49.97
2022-09-04T03:56:46.879Z,49.58
2022-09-04T03:57:40.915Z,48.17
2022-09-04T03:58:14.578Z,49.76
2022-09-04T03:58:44.177Z,48.49
2022-09-04T03:59:09.216Z,48.98
2022-09-04T03:59:56.716Z,50.45
2022-09-04T04:00:20.688Z,49.82
2022-09-04T04:00:57.020Z,48.62
2022-09-04T04:01:29.454Z,48.00
2022-09-04T04:01:59.080Z,48.49
2022-09-04T04:02:30.246Z,49.16
2022-09-04T04:03:15.653Z,48.96
2022-09-04T04:03:56.214Z,50.02
2022-09-04T04:05:00.347Z,48.41
2022-09-04T04:05:48.832Z,48.47
2022-09-04T04:06:24.284Z,48.20
2022-09-04T04:06:52.841Z,48.44
2022-09-04T04:07:28.264Z,48.75
2022-09-04T04:08:05.492Z,47.90
2022-09-04T04:08:37.209Z,48.69
2022-09-04T04:09:20.089Z,48.06
2022-09-04T04:09:55.624Z,49.48
2022-09-04T04:10:31.165Z,47.66
2022-09-04T04:11:00.355Z,47.59
2022-09-04T04:11:43.721Z,48.03
2022-09-04T04:12:19.699Z,48.60
2022-09-04T04:13:15.201Z,48.62
2022-09-04T04:13:55.112Z,48.22
2022-09-04T04:14:38.197Z,48.60
2022-09-04T04:15:13.815Z,48.60
2022-09-04T04:15:48.102Z,49.12
2022-09-04T04:16:24.769Z,48.27
2022-09-04T04:17:00.111Z,48.25
2022-09-04T04:17:37.828Z,50.05
2022-09-04T04:18:31.935Z,47.91
2022-09-04T04:19:27.740Z,49.07
2022-09-04T04:20:06.926Z,49.60
2022-09-04T04:20:41.099Z,50.47
2022-09-04T04:21:14.589Z,48.67
2022-09-04T04:21:55.836Z,49.86
2022-09-04T04:22:34.133Z,50.72
2022-09-04T04:23:11.348Z,49.66
2022-09-04T04:24:21.941Z,49.54
2022-09-04T04:25:03.121Z,49.73
2022-09-04T04:25:48.802Z,50.43
2022-09-04T04:26:21.601Z,48.90
2022-09-04T04:26:59.296Z,49.59
2022-09-04T04:27:36.121Z,49.87
2022-09-04T04:28:19.816Z,49.93
2022-09-04T04:29:10.141Z,49.18
2022-09-04T04:29:51.988Z,51.64
2022-09-04T04:30:16.001Z,51.33
2022-09-04T04:30:49.347Z,50.71
2022-09-04T04:31:20.812Z,51.16
2022-09-04T04:32:11.696Z,50.69
2022-09-04T04:32:51.146Z,50.28
2022-09-04T04:33:32.429Z,49.94
2022-09-04T04:34:03.805Z,50.47
2022-09-04T04:34:35.165Z,49.55
2022-09-04T04:35:08.712Z,50.66
2022-09-04T04:35:39.537Z,49.89
2022-09-04T04:36:10.051Z,50.49
2022-09-04T04:36:37.813Z,51.03
2022-09-04T04:37:07.475Z,51.43
2022-09-04T04:37:44.373Z,50.30
2022-09-04T04:38:18.425Z,49.99
2022-09-04T04:38:53.691Z,49.31
2022-09-04T04:39:29.996Z,50.08
2022-09-04T04:39:58.764Z,49.35
2022-09-04T04:40:32.611Z,50.63
2022-09-04T04:41:05.332Z,49.66
2022-09-04T04:42:00.550Z,50.48
2022-09-04T04:42:29.979Z,50.20
2022-09-04T04:42:59.559Z,48.59
2022-09-04T04:43:31.243Z,47.85
2022-09-04T04:44:07.041Z,49.04
2022-09-04T04:45:00.935Z,49.44
2022-09-04T04:45:47.616Z,50.91
2022-09-04T04:46:19.275Z,49.41
2022-09-04T04:46:55.914Z,48.51
2022-09-04T04:47:34.999Z,48.10
2022-09-04T04:48:18.258Z,48.33
2022-09-04T04:49:00.016Z,49.39
2022-09-04T04:49:45.506Z,47.73
2022-09-04T04:50:16.172Z,48.44
2022-09-04T04:50:54.200Z,48.54
2022-09-04T04:51:31.754Z,48.15
2022-09-04T04:52:17.676Z,49.49
2022-09-04T04:52:49.317Z,51.05
2022-09-04T04:53:19.091Z,49.73
2022-09-04T04:53:50.520Z,48.86
2022-09-04T04:54:30.275Z,49.85
2022-09-04T04:55:06.201Z,49.55
2022-09-04T04:55:43.003Z,48.05
2022-09-04T04:56:14.087Z,48.38
2022-09-04T04:56:48.149Z,49.36
2022-09-04T04:57:23.120Z,50.27
2022-09-04T04:57:56.396Z,51.48
2022-09-04T04:58:32.345Z,51.70
2022-09-04T04:59:08.897Z,50.39
2022-09-04T04:59:38.085Z,50.05
2022-09-04T05:00:08.799Z,50.53
2022-09-04T05:00:40.110Z,49.87
2022-09-04T05:01:11.841Z,48.63
2022-09-04T05:01:44.465Z,48.28
2022-09-04T05:02:16.994Z,48.69
2022-09-04T05:02:49.142Z,49.28
2022-09-04T05:03:22.355Z,49.15
2022-09-04T05:03:59.460Z,48.69
2022-09-04T05:04:29.987Z,49.61
2022-09-04T05:05:02.245Z,49.04
2022-09-04T05:05:46.933Z,49.27
2022-09-04T05:06:14.792Z,49.85
2022-09-04T05:06:41.750Z,50.67
2022-09-04T05:07:11.869Z,51.28
2022-09-04T05:07:40.595Z,51.46
2022-09-04T05:08:09.779Z,50.19
2022-09-04T05:08:45.580Z,48.52
2022-09-04T05:09:15.217Z,48.80
2022-09-04T05:09:44.660Z,48.04
2022-09-04T05:10:14.462Z,47.55
2022-09-04T05:10:41.543Z,47.90
2022-09-04T05:11:10.621Z,49.75
2022-09-04T05:11:41.039Z,49.97
2022-09-04T05:12:09.245Z,49.13
2022-09-04T05:12:44.264Z,48.26
2022-09-04T05:13:17.755Z,49.73
2022-09-04T05:13:51.664Z,48.84
2022-09-04T05:14:31.739Z,48.81
2022-09-04T05:15:01.247Z,49.16
2022-09-04T05:15:32.793Z,49.75
2022-09-04T05:16:09.351Z,50.58
2022-09-04T05:16:42.901Z,48.85
2022-09-04T05:17:14.547Z,48.78
2022-09-04T05:17:47.040Z,49.02
2022-09-04T05:18:16.248Z,48.81
2022-09-04T05:18:45.282Z,47.80
2022-09-04T05:19:15.397Z,49.29
2022-09-04T05:19:46.504Z,48.88
2022-09-04T05:20:25.615Z,49.61
2022-09-04T05:20:54.131Z,48.92
2022-09-04T05:21:22.680Z,49.52
2022-09-04T05:21:52.145Z,49.20
2022-09-04T05:22:20.870Z,50.40
2022-09-04T05:22:47.541Z,50.86
2022-09-04T05:23:19.437Z,50.46
2022-09-04T05:23:54.544Z,49.26
2022-09-04T05:24:23.634Z,49.56
2022-09-04T05:24:56.158Z,49.43
2022-09-04T05:25:26.603Z,50.25
2022-09-04T05:25:54.454Z,48.92
2022-09-04T05:26:26.100Z,49.32
2022-09-04T05:26:56.509Z,51.02
2022-09-04T05:27:39.626Z,51.19
2022-09-04T05:28:10.652Z,49.98
2022-09-04T05:28:46.403Z,50.03
2022-09-04T05:29:17.314Z,49.79
2022-09-04T05:29:51.634Z,50.56
2022-09-04T05:30:18.296Z,49.37
2022-09-04T05:30:48.262Z,48.95
2022-09-04T05:31:19.982Z,49.41
2022-09-04T05:31:52.351Z,48.96
2022-09-04T05:32:21.839Z,48.99
2022-09-04T05:32:53.490Z,48.82
2022-09-04T05:33:26.051Z,48.67
2022-09-04T05:33:57.245Z,48.78
2022-09-04T05:34:26.592Z,49.65
2022-09-04T05:35:02.126Z,49.30
2022-09-04T05:35:37.086Z,49.95
2022-09-04T05:36:08.774Z,49.10
2022-09-04T05:36:44.972Z,50.09
2022-09-04T05:37:13.349Z,50.61
2022-09-04T05:37:41.709Z,49.95
2022-09-04T05:38:11.137Z,51.38
2022-09-04T05:38:40.803Z,50.91
2022-09-04T05:39:10.572Z,49.78
2022-09-04T05:39:41.452Z,49.47
2022-09-04T05:40:11.254Z,49.68
2022-09-04T05:40:47.883Z,48.79
2022-09-04T05:41:24.574Z,47.55
2022-09-04T05:42:09.633Z,48.94
2022-09-04T05:42:58.783Z,48.87
2022-09-04T05:43:33.495Z,50.33
2022-09-04T05:44:18.615Z,50.51
2022-09-04T05:44:54.598Z,51.07
2022-09-04T05:45:24.873Z,50.43
2022-09-04T05:46:00.063Z,50.47
2022-09-04T05:46:38.882Z,49.89
2022-09-04T05:47:09.902Z,48.83
2022-09-04T05:47:43.429Z,50.18
2022-09-04T05:48:16.461Z,50.42
2022-09-04T05:48:46.809Z,51.07
2022-09-04T05:49:18.285Z,50.32
2022-09-04T05:49:59.384Z,49.52
2022-09-04T05:50:32.937Z,47.83
2022-09-04T05:51:07.139Z,48.69
2022-09-04T05:51:54.523Z,49.61
2022-09-04T05:52:52.708Z,50.35
2022-09-04T05:53:41.238Z,49.18
2022-09-04T05:54:26.518Z,49.29
2022-09-04T05:55:16.130Z,48.74
2022-09-04T05:55:55.196Z,50.66
2022-09-04T05:56:39.947Z,50.57
2022-09-04T05:57:15.241Z,49.72
2022-09-04T05:57:51.959Z,49.26
2022-09-04T05:58:29.415Z,49.26
2022-09-04T05:59:12.483Z,48.81
2022-09-04T06:00:16.133Z,49.42
2022-09-04T06:00:50.809Z,49.75
2022-09-04T06:01:27.918Z,50.16
2022-09-04T06:02:33.183Z,50.81
2022-09-04T06:03:14.690Z,51.16
2022-09-04T06:04:02.504Z,51.41
2022-09-04T06:04:39.085Z,51.60
2022-09-04T06:05:13.389Z,50.79
2022-09-04T06:05:47.179Z,50.77
2022-09-04T06:06:19.126Z,49.81
2022-09-04T06:06:48.288Z,49.18
2022-09-04T06:07:17.761Z,49.07
2022-09-04T06:07:52.420Z,50.22
2022-09-04T06:08:29.917Z,50.50
2022-09-04T06:09:22.778Z,50.54
2022-09-04T06:09:58.474Z,50.75
2022-09-04T06:10:27.371Z,50.61
2022-09-04T06:11:02.108Z,49.51
2022-09-04T06:11:51.532Z,50.11
2022-09-04T06:12:36.151Z,50.13
2022-09-04T06:13:24.922Z,49.62
2022-09-04T06:14:07.084Z,48.61
2022-09-04T06:14:45.637Z,49.51
2022-09-04T06:15:16.243Z,49.13
2022-09-04T06:15:49.878Z,48.05
2022-09-04T06:16:28.067Z,48.15
2022-09-04T06:17:05.018Z,48.72
2022-09-04T06:17:37.440Z,49.05
2022-09-04T06:18:24.425Z,48.91
2022-09-04T06:19:01.579Z,48.02
2022-09-04T06:19:38.657Z,48.88
2022-09-04T06:20:34.536Z,47.77
2022-09-04T06:21:17.335Z,46.77
2022-09-04T06:21:54.571Z,47.74
2022-09-04T06:22:53.809Z,49.35
2022-09-04T06:23:37.187Z,48.59
2022-09-04T06:24:26.483Z,47.43
2022-09-04T06:25:05.554Z,49.31
2022-09-04T06:25:49.654Z,48.35
2022-09-04T06:26:48.510Z,49.13
2022-09-04T06:27:23.082Z,47.48
2022-09-04T06:28:03.217Z,48.11
2022-09-04T06:28:41.164Z,48.89
2022-09-04T06:29:17.630Z,46.85
2022-09-04T06:30:07.766Z,47.00
2022-09-04T06:30:38.392Z,48.30
2022-09-04T06:31:07.601Z,48.84
2022-09-04T06:32:04.235Z,47.86
2022-09-04T06:32:51.382Z,47.46
2022-09-04T06:33:49.849Z,48.94
2022-09-04T06:34:22.507Z,46.79
2022-09-04T06:35:09.483Z,48.92
2022-09-04T06:35:45.376Z,47.23
2022-09-04T06:36:25.925Z,48.87
2022-09-04T06:37:04.108Z,49.10
2022-09-04T06:37:38.277Z,48.54
2022-09-04T06:38:20.217Z,49.19
2022-09-04T06:38:59.991Z,48.95
2022-09-04T06:39:39.784Z,48.22
2022-09-04T06:40:17.794Z,50.31
2022-09-04T06:40:51.654Z,49.79
2022-09-04T06:41:32.888Z,50.11
2022-09-04T06:42:08.247Z,48.29
2022-09-04T06:42:47.810Z,48.28
2022-09-04T06:43:17.877Z,48.63
2022-09-04T06:43:48.810Z,48.08
2022-09-04T06:44:24.620Z,48.09
2022-09-04T06:44:58.131Z,48.17
2022-09-04T06:45:30.975Z,49.54
2022-09-04T06:46:03.563Z,49.56
2022-09-04T06:46:34.477Z,49.02
2022-09-04T06:47:10.969Z,47.92
2022-09-04T06:47:43.811Z,47.41
2022-09-04T06:48:16.839Z,48.96
2022-09-04T06:48:53.150Z,48.82
2022-09-04T06:49:21.303Z,49.72
2022-09-04T06:49:59.394Z,49.08
2022-09-04T06:50:30.972Z,49.81
2022-09-04T06:51:01.827Z,49.87
2022-09-04T06:51:37.641Z,50.23
2022-09-04T06:52:15.179Z,50.03
2022-09-04T06:52:49.278Z,50.20
2022-09-04T06:53:19.192Z,49.31
2022-09-04T06:53:56.767Z,48.69
2022-09-04T06:54:34.139Z,48.98
2022-09-04T06:55:00.455Z,48.75
2022-09-04T06:55:33.392Z,48.63
2022-09-04T06:56:11.348Z,47.77
2022-09-04T06:56:58.526Z,49.50
2022-09-04T06:57:46.636Z,49.86
2022-09-04T06:58:46.220Z,50.19
2022-09-04T06:59:38.785Z,49.47
2022-09-04T07:00:07.477Z,50.36
2022-09-04T07:00:39.034Z,49.94
2022-09-04T07:01:08.111Z,49.93
2022-09-04T07:01:40.503Z,50.16
2022-09-04T07:02:17.222Z,49.61
2022-09-04T07:03:09.404Z,49.34
2022-09-04T07:03:44.932Z,48.53
2022-09-04T07:04:21.072Z,48.58
2022-09-04T07:04:57.426Z,48.30
2022-09-04T07:05:24.802Z,49.87
2022-09-04T07:05:57.388Z,49.06
2022-09-04T07:06:24.773Z,47.65
2022-09-04T07:06:58.741Z,48.98
2022-09-04T07:07:28.401Z,48.22
2022-09-04T07:08:03.424Z,48.48
2022-09-04T07:08:38.856Z,49.37
2022-09-04T07:09:08.153Z,49.83
2022-09-04T07:09:36.414Z,50.16
2022-09-04T07:10:04.275Z,50.16
2022-09-04T07:10:33.248Z,49.91
2022-09-04T07:11:09.563Z,50.19
2022-09-04T07:11:51.188Z,50.23
2022-09-04T07:12:39.601Z,50.06
2022-09-04T07:13:23.427Z,49.20
2022-09-04T07:14:00.106Z,48.50
2022-09-04T07:14:36.073Z,49.66
2022-09-04T07:15:28.962Z,49.75
2022-09-04T07:16:09.564Z,49.55
2022-09-04T07:16:41.081Z,49.75
2022-09-04T07:17:11.233Z,49.89
2022-09-04T07:17:39.427Z,49.79
2022-09-04T07:18:09.561Z,49.31
2022-09-04T07:18:48.249Z,49.38
2022-09-04T07:19:43.353Z,48.97
2022-09-04T07:20:17.047Z,47.38
2022-09-04T07:20:52.708Z,48.15
2022-09-04T07:21:23.591Z,47.17
2022-09-04T07:21:58.852Z,48.02
2022-09-04T07:22:45.988Z,47.97
2022-09-04T07:23:33.931Z,48.50